Time;durP1;ratioP1;P1;durP2;ratioP2;P2;SDS_P1;SDS_P2;PMS_P1;PMS_P2;Temp;Humidity;BMP_temperature;BMP_pressure;BME280_temperature;BME280_humidity;BME280_pressure;Samples;Min_cycle;Max_cycle;Signal;HPM_P1;HPM_P2
2023/03/27 00:01:23;;;;;;;1.98;0.65;;;2.70;99.90;;;;;;5052389;28;20064;-69
2023/03/27 00:03:50;;;;;;;1.63;0.75;;;2.60;99.90;;;;;;5040393;28;20041;-71
2023/03/27 00:06:18;;;;;;;2.42;1.20;;;2.60;99.90;;;;;;5049671;28;20123;-69
2023/03/27 00:08:46;;;;;;;1.52;0.90;;;2.50;99.90;;;;;;5051940;28;20090;-69
2023/03/27 00:11:12;;;;;;;5.90;1.10;;;2.50;99.90;;;;;;5042451;28;20541;-70
2023/03/27 00:13:38;;;;;;;6.28;1.00;;;2.50;99.90;;;;;;5038249;28;20049;-69
2023/03/27 00:16:05;;;;;;;5.05;1.58;;;2.40;99.90;;;;;;5048108;28;20128;-70
2023/03/27 00:18:32;;;;;;;5.88;1.33;;;2.30;99.90;;;;;;5039383;28;20128;-70
2023/03/27 00:20:59;;;;;;;3.65;0.90;;;2.20;99.90;;;;;;5032783;28;20049;-69
2023/03/27 00:23:28;;;;;;;4.00;0.93;;;2.10;99.90;;;;;;5033280;28;20033;-69
2023/03/27 00:25:56;;;;;;;2.20;0.98;;;2.10;99.90;;;;;;5032103;28;20033;-70
2023/03/27 00:28:27;;;;;;;1.85;0.90;;;2.10;99.90;;;;;;5034912;28;20115;-70
2023/03/27 00:30:54;;;;;;;5.03;1.23;;;2.00;99.90;;;;;;5041125;28;20033;-70
2023/03/27 00:33:20;;;;;;;3.50;0.98;;;2.00;99.90;;;;;;5039574;28;20040;-70
2023/03/27 00:35:48;;;;;;;5.05;0.85;;;2.00;99.90;;;;;;5026285;28;20186;-69
2023/03/27 00:38:15;;;;;;;2.05;0.80;;;2.00;99.90;;;;;;5030265;28;20049;-70
2023/03/27 00:40:42;;;;;;;3.50;0.90;;;1.90;99.90;;;;;;5035850;28;20408;-70
2023/03/27 00:43:42;;;;;;;3.95;0.90;;;1.90;99.90;;;;;;5042796;28;20160;-70
2023/03/27 00:46:14;;;;;;;2.72;0.73;;;1.90;99.90;;;;;;5027397;28;20598;-70
2023/03/27 00:48:42;;;;;;;3.88;1.00;;;1.90;99.90;;;;;;5029831;28;20053;-70
2023/03/27 00:51:08;;;;;;;5.97;1.00;;;1.90;99.90;;;;;;5029945;28;20044;-69
2023/03/27 00:53:34;;;;;;;3.03;0.70;;;1.90;99.90;;;;;;5041500;28;20037;-70
2023/03/27 00:56:06;;;;;;;4.13;0.90;;;1.80;99.90;;;;;;5027023;28;20037;-69
2023/03/27 00:58:38;;;;;;;2.42;0.80;;;1.80;99.90;;;;;;5048122;28;20108;-70
2023/03/27 01:01:05;;;;;;;4.32;0.93;;;1.80;99.90;;;;;;5034817;28;20061;-70
2023/03/27 01:03:32;;;;;;;4.15;0.88;;;1.80;99.90;;;;;;5045644;28;20084;-70
2023/03/27 01:06:00;;;;;;;0.70;0.65;;;1.70;99.90;;;;;;5045419;28;20029;-70
2023/03/27 01:08:28;;;;;;;3.17;1.52;;;1.70;99.90;;;;;;5049444;28;20095;-69
2023/03/27 01:11:34;;;;;;;4.57;0.88;;;1.60;99.90;;;;;;5029237;28;20045;-70
2023/03/27 01:14:07;;;;;;;1.67;0.68;;;1.60;99.90;;;;;;5036547;28;20527;-70
2023/03/27 01:16:54;;;;;;;3.95;0.82;;;1.50;99.90;;;;;;5032593;28;20047;-69
2023/03/27 01:19:40;;;;;;;2.72;0.60;;;1.50;99.90;;;;;;5030266;28;20053;-69
2023/03/27 01:22:14;;;;;;;3.45;1.00;;;1.50;99.90;;;;;;5028783;28;20087;-68
2023/03/27 01:25:02;;;;;;;2.75;0.82;;;1.50;99.90;;;;;;5025029;28;20037;-69
2023/03/27 01:27:48;;;;;;;2.58;0.77;;;1.50;99.90;;;;;;5051684;28;20045;-69
2023/03/27 01:30:32;;;;;;;4.25;1.10;;;1.50;99.90;;;;;;5032125;28;20034;-70
2023/03/27 01:33:16;;;;;;;3.10;0.80;;;1.50;99.90;;;;;;5037164;28;20041;-69
2023/03/27 01:36:03;;;;;;;2.60;0.80;;;1.60;99.90;;;;;;5029194;28;20033;-69
2023/03/27 01:39:04;;;;;;;2.22;0.80;;;1.60;99.90;;;;;;5039698;28;20047;-69
2023/03/27 01:41:49;;;;;;;2.92;1.00;;;1.60;99.90;;;;;;5042908;28;20144;-69
2023/03/27 01:44:29;;;;;;;1.73;0.80;;;1.60;99.90;;;;;;5026770;28;20053;-69
2023/03/27 01:47:08;;;;;;;;;;;1.60;99.90;;;;;;5016173;28;20481;-69
2023/03/27 01:49:40;;;;;;;0.55;0.50;;;1.70;99.90;;;;;;5031165;28;19999;-69
2023/03/27 01:52:13;;;;;;;2.67;0.68;;;1.60;99.90;;;;;;5038011;28;20041;-69
2023/03/27 01:54:42;;;;;;;2.05;0.50;;;1.60;99.90;;;;;;5037372;28;20041;-69
2023/03/27 01:57:21;;;;;;;3.50;1.42;;;1.60;99.90;;;;;;5044395;28;20124;-68
2023/03/27 01:59:55;;;;;;;3.33;1.05;;;1.60;99.90;;;;;;5036299;28;20045;-69
2023/03/27 02:02:31;;;;;;;4.05;0.63;;;1.60;99.90;;;;;;5051856;28;20055;-69
2023/03/27 02:05:15;;;;;;;3.03;0.85;;;1.60;99.90;;;;;;5031857;28;20037;-69
2023/03/27 02:07:50;;;;;;;1.10;0.50;;;1.60;99.90;;;;;;5031641;28;20056;-69
2023/03/27 02:10:21;;;;;;;2.17;0.43;;;1.50;99.90;;;;;;5031525;28;20120;-69
2023/03/27 02:12:56;;;;;;;1.95;0.80;;;1.50;99.90;;;;;;5056670;28;20044;-69
2023/03/27 02:15:28;;;;;;;2.70;0.70;;;1.40;99.90;;;;;;5048652;28;20045;-68
2023/03/27 02:18:03;;;;;;;7.43;0.88;;;1.40;99.90;;;;;;5038182;28;20077;-69
2023/03/27 02:20:30;;;;;;;2.83;0.75;;;1.40;99.90;;;;;;5031947;28;20444;-69
2023/03/27 02:22:59;;;;;;;0.65;0.40;;;1.40;99.90;;;;;;5030861;28;20037;-69
2023/03/27 02:25:34;;;;;;;2.05;0.50;;;1.30;99.90;;;;;;5045808;28;20370;-70
2023/03/27 02:28:11;;;;;;;1.38;0.70;;;1.30;99.90;;;;;;5037410;28;20030;-69
2023/03/27 02:31:08;;;;;;;3.85;0.60;;;1.30;99.90;;;;;;5051376;28;20416;-69
2023/03/27 02:33:52;;;;;;;1.65;0.65;;;1.30;99.90;;;;;;5060346;28;20060;-69
2023/03/27 02:36:36;;;;;;;3.92;0.57;;;1.30;99.90;;;;;;5044713;28;20128;-69
2023/03/27 02:39:47;;;;;;;0.52;0.43;;;1.20;99.90;;;;;;5042949;28;20044;-68
2023/03/27 02:42:34;;;;;;;1.52;1.23;;;1.30;99.90;;;;;;5045500;28;20049;-69
2023/03/27 02:45:14;;;;;;;3.13;0.60;;;1.20;99.90;;;;;;5029314;28;20033;-69
2023/03/27 02:47:44;;;;;;;5.25;0.75;;;1.20;99.90;;;;;;5032782;28;20042;-69
2023/03/27 02:50:29;;;;;;;;;;;1.20;99.90;;;;;;5025064;28;20404;-70
2023/03/27 02:53:02;;;;;;;0.63;0.50;;;1.30;99.90;;;;;;5030518;28;20007;-68
2023/03/27 02:55:34;;;;;;;0.65;0.40;;;1.40;99.90;;;;;;5037673;28;20512;-70
2023/03/27 02:58:08;;;;;;;0.95;0.57;;;1.50;99.90;;;;;;5046437;28;20435;-69
2023/03/27 03:00:40;;;;;;;2.08;0.90;;;1.60;99.90;;;;;;5024459;28;22192;-69
2023/03/27 03:03:11;;;;;;;1.98;0.60;;;1.70;99.90;;;;;;5039381;28;20048;-69
2023/03/27 03:05:37;;;;;;;1.77;0.60;;;1.70;99.90;;;;;;5036689;28;20037;-69
2023/03/27 03:08:04;;;;;;;1.80;0.50;;;1.70;99.90;;;;;;5033784;28;20033;-68
2023/03/27 03:10:32;;;;;;;1.83;0.60;;;1.80;99.90;;;;;;5039647;28;20041;-69
2023/03/27 03:12:57;;;;;;;1.30;0.60;;;1.70;99.90;;;;;;5048226;28;20038;-69
2023/03/27 03:15:23;;;;;;;1.67;0.60;;;1.70;99.90;;;;;;5026976;28;20053;-69
2023/03/27 03:17:48;;;;;;;2.60;0.55;;;1.60;99.90;;;;;;5026684;28;20633;-69
2023/03/27 03:20:15;;;;;;;1.48;0.63;;;1.50;99.90;;;;;;5041052;28;20095;-68
2023/03/27 03:22:41;;;;;;;4.60;0.75;;;1.50;99.90;;;;;;5039529;28;20064;-69
2023/03/27 03:25:08;;;;;;;4.03;0.63;;;1.40;99.90;;;;;;5042810;28;20064;-68
2023/03/27 03:27:33;;;;;;;4.70;0.85;;;1.30;99.90;;;;;;5038241;28;20392;-69
2023/03/27 03:29:59;;;;;;;4.90;0.77;;;1.30;99.90;;;;;;5039083;28;20041;-69
2023/03/27 03:32:26;;;;;;;2.10;0.60;;;1.30;99.90;;;;;;5030779;28;20041;-68
2023/03/27 03:34:52;;;;;;;1.77;0.47;;;1.20;99.90;;;;;;5013978;28;20033;-69
2023/03/27 03:37:18;;;;;;;4.65;0.98;;;1.20;99.90;;;;;;5041664;28;20523;-69
2023/03/27 03:39:44;;;;;;;4.47;0.85;;;1.20;99.90;;;;;;5032386;28;20614;-70
2023/03/27 03:42:10;;;;;;;1.00;0.47;;;1.20;99.90;;;;;;5052973;28;20029;-69
2023/03/27 03:44:36;;;;;;;0.88;0.57;;;1.20;99.90;;;;;;5042503;28;20034;-68
2023/03/27 03:47:02;;;;;;;2.72;0.52;;;1.20;99.90;;;;;;5028376;28;20124;-69
2023/03/27 03:49:27;;;;;;;3.20;0.85;;;1.20;99.90;;;;;;5024531;28;20101;-68
2023/03/27 03:51:53;;;;;;;2.92;0.88;;;1.20;99.90;;;;;;5029507;28;20060;-68
2023/03/27 03:54:19;;;;;;;4.88;0.80;;;1.30;99.90;;;;;;5031078;28;20045;-69
2023/03/27 03:56:44;;;;;;;1.00;0.73;;;1.30;99.90;;;;;;5046724;28;20394;-68
2023/03/27 03:59:13;;;;;;;5.40;1.02;;;1.40;99.90;;;;;;5039618;28;20822;-69
2023/03/27 04:01:39;;;;;;;3.78;0.68;;;1.40;99.90;;;;;;5028474;28;20057;-69
2023/03/27 04:04:07;;;;;;;3.78;0.80;;;1.40;99.90;;;;;;5045788;28;20049;-68
2023/03/27 04:06:36;;;;;;;3.38;0.90;;;1.40;99.90;;;;;;5030749;28;20412;-69
2023/03/27 04:09:05;;;;;;;4.43;0.70;;;1.40;99.90;;;;;;5029559;28;20408;-68
2023/03/27 04:11:31;;;;;;;1.42;0.70;;;1.40;99.90;;;;;;5037956;28;20040;-69
2023/03/27 04:13:57;;;;;;;4.32;1.00;;;1.30;99.90;;;;;;5046444;28;20115;-69
2023/03/27 04:16:22;;;;;;;1.73;0.70;;;1.40;99.90;;;;;;5026365;28;20128;-68
2023/03/27 04:18:49;;;;;;;4.18;0.77;;;1.40;99.90;;;;;;5029010;28;20572;-69
2023/03/27 04:21:16;;;;;;;3.25;0.70;;;1.40;99.90;;;;;;5045356;28;20045;-68
2023/03/27 04:23:44;;;;;;;6.30;1.15;;;1.30;99.90;;;;;;5048814;28;20045;-68
2023/03/27 04:26:11;;;;;;;4.45;0.95;;;1.40;99.90;;;;;;5041321;28;20044;-69
2023/03/27 04:28:37;;;;;;;3.30;1.70;;;1.40;99.90;;;;;;5045456;28;20112;-69
2023/03/27 04:31:05;;;;;;;3.85;0.80;;;1.40;99.90;;;;;;5035231;28;20492;-68
2023/03/27 04:33:38;;;;;;;3.97;0.90;;;1.40;99.90;;;;;;5047284;28;20045;-68
2023/03/27 04:36:07;;;;;;;2.95;0.88;;;1.60;99.90;;;;;;5033385;28;20053;-70
2023/03/27 04:38:37;;;;;;;2.05;0.52;;;1.60;99.90;;;;;;5038649;28;20135;-68
2023/03/27 04:41:04;;;;;;;2.15;0.60;;;1.70;99.90;;;;;;5032532;28;20071;-69
2023/03/27 04:43:29;;;;;;;2.83;0.50;;;1.70;99.90;;;;;;5029179;28;20523;-69
2023/03/27 04:45:55;;;;;;;3.35;0.90;;;1.80;99.90;;;;;;5022595;28;20038;-69
2023/03/27 04:48:21;;;;;;;1.98;0.80;;;1.70;99.90;;;;;;5040534;28;20753;-68
2023/03/27 04:50:50;;;;;;;2.13;0.50;;;1.60;99.90;;;;;;5046834;28;20651;-68
2023/03/27 04:53:19;;;;;;;0.90;0.57;;;1.50;99.90;;;;;;5016702;28;20079;-69
2023/03/27 04:55:45;;;;;;;2.13;0.70;;;1.40;99.90;;;;;;5026552;28;20330;-69
2023/03/27 04:58:12;;;;;;;0.63;0.50;;;1.30;99.90;;;;;;5032157;28;20132;-68
2023/03/27 05:00:38;;;;;;;3.90;0.98;;;1.30;99.90;;;;;;5027506;28;20057;-69
2023/03/27 05:03:04;;;;;;;2.78;0.60;;;1.20;99.90;;;;;;5033147;28;20124;-69
2023/03/27 05:05:30;;;;;;;9.13;1.02;;;1.20;99.90;;;;;;5048802;28;20068;-68
2023/03/27 05:07:55;;;;;;;4.05;1.00;;;1.10;99.90;;;;;;5035219;28;20044;-68
2023/03/27 05:10:21;;;;;;;8.23;1.23;;;1.10;99.90;;;;;;5030830;28;20045;-69
2023/03/27 05:12:48;;;;;;;3.03;0.80;;;1.10;99.90;;;;;;5042830;28;20049;-69
2023/03/27 05:15:15;;;;;;;2.15;0.73;;;1.10;99.90;;;;;;5030351;28;20040;-69
2023/03/27 05:17:43;;;;;;;1.52;1.02;;;1.10;99.90;;;;;;5041183;28;20491;-69
2023/03/27 05:20:13;;;;;;;6.28;1.52;;;1.10;99.90;;;;;;5030360;28;20571;-69
2023/03/27 05:22:39;;;;;;;4.93;0.80;;;1.10;99.90;;;;;;5035831;28;20464;-68
2023/03/27 05:25:06;;;;;;;1.63;0.80;;;1.20;99.90;;;;;;5035409;28;20094;-69
2023/03/27 05:27:31;;;;;;;1.35;0.90;;;1.20;99.90;;;;;;5030649;28;20072;-68
2023/03/27 05:29:57;;;;;;;6.32;0.82;;;1.20;99.90;;;;;;5026985;28;20084;-68
2023/03/27 05:32:22;;;;;;;0.93;0.68;;;1.20;99.90;;;;;;5029692;28;20036;-68
2023/03/27 05:34:53;;;;;;;3.38;0.88;;;1.30;99.90;;;;;;5038123;28;20034;-68
2023/03/27 05:37:20;;;;;;;1.98;0.90;;;1.40;99.90;;;;;;5017254;28;20029;-68
2023/03/27 05:39:45;;;;;;;2.40;0.80;;;1.40;99.90;;;;;;5020718;28;20037;-69
2023/03/27 05:42:15;;;;;;;1.95;0.80;;;1.40;99.90;;;;;;5048048;28;20107;-69
2023/03/27 05:44:43;;;;;;;2.90;0.95;;;1.50;99.90;;;;;;5040030;28;20041;-69
2023/03/27 05:47:11;;;;;;;1.52;0.85;;;1.40;99.90;;;;;;5036058;28;22015;-68
2023/03/27 05:49:36;;;;;;;12.05;0.90;;;1.40;99.90;;;;;;5032085;28;20038;-68
2023/03/27 05:52:02;;;;;;;4.45;0.80;;;1.40;99.90;;;;;;5035806;28;20087;-68
2023/03/27 05:54:28;;;;;;;3.47;1.30;;;1.40;99.90;;;;;;5042094;28;20037;-70
2023/03/27 05:56:54;;;;;;;0.77;0.70;;;1.40;99.90;;;;;;5043368;28;20349;-68
2023/03/27 05:59:19;;;;;;;2.08;0.68;;;1.50;99.90;;;;;;5042562;28;20041;-69
2023/03/27 06:01:45;;;;;;;3.80;1.00;;;1.50;99.90;;;;;;5046986;28;20053;-68
2023/03/27 06:04:11;;;;;;;2.88;0.75;;;1.50;99.90;;;;;;5052353;28;20092;-69
2023/03/27 06:06:37;;;;;;;1.50;0.80;;;1.60;99.90;;;;;;5047499;28;20069;-68
2023/03/27 06:09:03;;;;;;;2.15;1.00;;;1.70;99.90;;;;;;5049792;28;20045;-68
2023/03/27 06:11:29;;;;;;;2.20;0.80;;;1.80;99.90;;;;;;5034190;28;20034;-68
2023/03/27 06:13:55;;;;;;;2.40;0.55;;;1.80;99.90;;;;;;5029726;28;20049;-69
2023/03/27 06:16:21;;;;;;;1.67;0.60;;;1.90;99.90;;;;;;5034011;28;20528;-68
2023/03/27 06:18:47;;;;;;;1.73;0.60;;;2.00;99.90;;;;;;5029914;28;20566;-69
2023/03/27 06:21:13;;;;;;;2.75;0.85;;;2.20;99.90;;;;;;5030992;28;20094;-69
2023/03/27 06:23:39;;;;;;;1.55;0.45;;;2.40;99.90;;;;;;5030641;28;20454;-69
2023/03/27 06:26:04;;;;;;;1.85;0.50;;;2.50;99.90;;;;;;5044212;28;20071;-68
2023/03/27 06:28:30;;;;;;;5.47;0.75;;;2.70;99.90;;;;;;5046964;28;20837;-69
2023/03/27 06:30:56;;;;;;;2.38;0.70;;;2.90;99.90;;;;;;5030309;28;20120;-69
2023/03/27 06:33:24;;;;;;;1.20;0.70;;;3.10;99.90;;;;;;5037134;28;20048;-69
2023/03/27 06:35:50;;;;;;;2.92;0.70;;;3.40;99.90;;;;;;5046387;28;20061;-68
2023/03/27 06:38:17;;;;;;;1.60;0.30;;;3.60;99.90;;;;;;5025553;28;20045;-70
2023/03/27 06:40:43;;;;;;;3.42;0.65;;;3.80;99.90;;;;;;5030394;28;20044;-71
2023/03/27 06:43:10;;;;;;;2.63;0.38;;;4.10;99.90;;;;;;5039694;28;20052;-70
2023/03/27 06:45:43;;;;;;;7.45;0.60;;;4.40;99.90;;;;;;5028964;28;20044;-69
2023/03/27 06:48:10;;;;;;;3.92;0.50;;;4.60;99.90;;;;;;5034953;28;20036;-70
2023/03/27 06:50:36;;;;;;;4.60;0.70;;;4.90;99.90;;;;;;5027647;28;20037;-70
2023/03/27 06:53:03;;;;;;;1.52;0.30;;;5.10;99.90;;;;;;5031624;28;20053;-70
2023/03/27 06:55:31;;;;;;;1.38;0.45;;;5.30;99.90;;;;;;5041815;28;20048;-70
2023/03/27 06:57:59;;;;;;;1.80;0.52;;;5.50;99.90;;;;;;5042959;28;20447;-69
2023/03/27 07:00:28;;;;;;;2.03;0.60;;;5.70;99.90;;;;;;5029834;28;20044;-69
2023/03/27 07:02:59;;;;;;;1.48;0.52;;;5.90;99.90;;;;;;5058586;28;20049;-69
2023/03/27 07:05:26;;;;;;;3.08;0.43;;;6.20;99.90;;;;;;5036900;28;20045;-69
2023/03/27 07:07:53;;;;;;;7.82;1.23;;;6.30;99.90;;;;;;5030422;28;20045;-69
2023/03/27 07:10:19;;;;;;;1.13;0.43;;;6.50;99.90;;;;;;5027014;28;20388;-69
2023/03/27 07:12:46;;;;;;;2.25;0.50;;;6.80;99.90;;;;;;5043979;28;20049;-71
2023/03/27 07:15:12;;;;;;;0.90;0.20;;;6.90;99.90;;;;;;5041140;28;20041;-69
2023/03/27 07:17:39;;;;;;;2.90;0.43;;;7.10;99.90;;;;;;5059749;28;20036;-70
2023/03/27 07:20:06;;;;;;;0.77;0.30;;;7.40;99.90;;;;;;5037941;28;20124;-69
2023/03/27 07:22:31;;;;;;;3.58;0.38;;;7.60;99.90;;;;;;5042698;28;20133;-71
2023/03/27 07:24:57;;;;;;;1.58;0.40;;;7.60;99.90;;;;;;5035797;28;20447;-69
2023/03/27 07:27:23;;;;;;;3.47;0.57;;;7.70;99.90;;;;;;5032901;28;20120;-71
2023/03/27 07:29:49;;;;;;;1.08;0.30;;;7.70;99.90;;;;;;5030515;28;20095;-70
2023/03/27 07:32:14;;;;;;;1.40;0.50;;;8.00;99.90;;;;;;5042037;28;20037;-70
2023/03/27 07:34:41;;;;;;;3.00;0.93;;;8.00;99.90;;;;;;5046617;28;20072;-70
2023/03/27 07:37:06;;;;;;;0.65;0.25;;;8.00;99.90;;;;;;5049376;28;20040;-70
2023/03/27 07:39:32;;;;;;;4.00;0.40;;;7.90;99.90;;;;;;5046687;28;20029;-71
2023/03/27 07:41:58;;;;;;;1.27;0.30;;;8.00;99.90;;;;;;5039933;28;20515;-71
2023/03/27 07:44:24;;;;;;;2.47;0.32;;;7.90;99.90;;;;;;5039718;28;20041;-71
2023/03/27 07:46:51;;;;;;;1.27;0.43;;;7.70;99.90;;;;;;5035591;28;20107;-70
2023/03/27 07:49:18;;;;;;;2.95;0.70;;;7.80;99.90;;;;;;5038819;28;20389;-71
2023/03/27 07:51:44;;;;;;;5.07;0.70;;;7.80;99.90;;;;;;5048130;28;20516;-71
2023/03/27 07:54:12;;;;;;;3.55;0.57;;;7.80;99.90;;;;;;5039392;28;20041;-68
2023/03/27 07:56:38;;;;;;;2.25;0.40;;;7.80;99.90;;;;;;5037831;28;20044;-69
2023/03/27 07:59:04;;;;;;;3.45;0.52;;;7.70;99.90;;;;;;5040419;28;20062;-70
2023/03/27 08:01:29;;;;;;;2.53;0.38;;;7.80;99.90;;;;;;5021917;28;20053;-70
2023/03/27 08:03:56;;;;;;;3.45;0.73;;;7.90;99.90;;;;;;5044591;28;20068;-70
2023/03/27 08:06:22;;;;;;;1.27;0.40;;;7.90;99.90;;;;;;5048860;28;20051;-70
2023/03/27 08:08:49;;;;;;;2.75;0.70;;;8.20;99.90;;;;;;5033609;28;20469;-70
2023/03/27 08:11:15;;;;;;;4.43;0.65;;;8.40;99.90;;;;;;5035283;28;20172;-69
2023/03/27 08:13:41;;;;;;;4.25;0.52;;;8.70;99.90;;;;;;5042429;28;20515;-69
2023/03/27 08:16:16;;;;;;;0.68;0.43;;;8.80;99.90;;;;;;5027220;28;20052;-70
2023/03/27 08:18:43;;;;;;;1.42;0.47;;;8.80;99.90;;;;;;5030771;28;20041;-70
2023/03/27 08:21:10;;;;;;;2.60;0.50;;;8.80;99.90;;;;;;5042730;28;20048;-70
2023/03/27 08:23:36;;;;;;;1.63;0.57;;;8.60;99.90;;;;;;5057630;28;20037;-69
2023/03/27 08:26:03;;;;;;;1.70;0.80;;;8.30;99.90;;;;;;5034396;28;20033;-71
2023/03/27 08:28:33;;;;;;;3.13;0.50;;;8.00;99.90;;;;;;5039831;28;20028;-69
2023/03/27 08:31:01;;;;;;;0.88;0.60;;;8.10;99.70;;;;;;5049805;28;20068;-70
2023/03/27 08:33:27;;;;;;;2.63;0.40;;;8.00;99.50;;;;;;5039367;28;20124;-69
2023/03/27 08:35:56;;;;;;;0.60;0.30;;;8.00;99.60;;;;;;5039566;28;20124;-70
2023/03/27 08:38:22;;;;;;;1.77;0.50;;;8.10;98.50;;;;;;5035101;28;20045;-70
2023/03/27 08:40:53;;;;;;;0.70;0.30;;;8.20;97.70;;;;;;5045334;28;20040;-70
2023/03/27 08:43:25;;;;;;;2.70;0.32;;;8.20;96.10;;;;;;5050704;28;20040;-69
2023/03/27 08:45:54;;;;;;;1.77;0.82;;;8.20;96.50;;;;;;5064483;28;20100;-70
2023/03/27 08:48:26;;;;;;;1.17;0.45;;;8.20;96.20;;;;;;5039471;28;20156;-71
2023/03/27 08:51:03;;;;;;;1.95;0.45;;;8.20;94.50;;;;;;5032642;28;20444;-70
2023/03/27 08:53:48;;;;;;;1.65;0.80;;;8.30;95.20;;;;;;5044876;28;20040;-72
2023/03/27 08:56:15;;;;;;;1.00;0.60;;;8.40;91.90;;;;;;5053095;28;20068;-69
2023/03/27 08:58:43;;;;;;;1.85;0.50;;;8.90;94.70;;;;;;5035289;28;20041;-68
2023/03/27 09:01:35;;;;;;;0.93;0.90;;;9.20;91.50;;;;;;5051017;28;20423;-68
2023/03/27 09:04:16;;;;;;;2.40;0.60;;;10.00;87.60;;;;;;5013158;28;20456;-69
2023/03/27 09:07:05;;;;;;;1.45;0.40;;;10.50;86.20;;;;;;5043756;28;20389;-70
2023/03/27 09:09:45;;;;;;;1.10;0.40;;;11.00;82.00;;;;;;5062897;28;20045;-70
2023/03/27 09:12:32;;;;;;;1.98;0.50;;;10.90;79.50;;;;;;5035006;28;20047;-71
2023/03/27 09:15:12;;;;;;;1.80;0.30;;;10.50;75.40;;;;;;5044833;28;20412;-72
2023/03/27 09:17:45;;;;;;;0.93;0.50;;;10.30;81.10;;;;;;5055036;28;20044;-72
2023/03/27 09:20:41;;;;;;;4.78;0.50;;;10.00;85.30;;;;;;5041027;28;20041;-71
2023/03/27 09:23:18;;;;;;;3.65;0.50;;;9.90;85.50;;;;;;5053142;28;20462;-70
2023/03/27 09:25:48;;;;;;;2.90;0.52;;;9.90;85.80;;;;;;5026139;28;20044;-70
2023/03/27 09:28:25;;;;;;;3.17;0.63;;;9.60;86.60;;;;;;5044548;28;20044;-68
2023/03/27 09:30:51;;;;;;;2.35;0.50;;;9.90;82.30;;;;;;5047121;28;20473;-69
2023/03/27 09:33:18;;;;;;;2.55;0.60;;;9.90;85.80;;;;;;5054924;28;20040;-71
2023/03/27 09:35:45;;;;;;;1.33;0.30;;;9.80;85.50;;;;;;5035258;28;20115;-69
2023/03/27 09:38:32;;;;;;;1.48;0.50;;;9.70;85.10;;;;;;5054635;28;20080;-72
2023/03/27 09:41:02;;;;;;;3.03;0.45;;;9.70;81.20;;;;;;5035419;28;20485;-72
2023/03/27 09:43:38;;;;;;;3.13;0.50;;;9.80;78.30;;;;;;5049380;28;20041;-71
2023/03/27 09:46:05;;;;;;;1.30;0.30;;;10.00;80.40;;;;;;5054745;28;20030;-70
2023/03/27 09:48:33;;;;;;;3.45;0.50;;;10.10;77.70;;;;;;5045094;28;22405;-70
2023/03/27 09:50:59;;;;;;;3.42;0.35;;;9.80;81.10;;;;;;5032139;28;20499;-70
2023/03/27 09:53:26;;;;;;;0.63;0.30;;;9.40;82.80;;;;;;5029895;28;20037;-71
2023/03/27 09:55:58;;;;;;;2.15;0.50;;;9.20;77.80;;;;;;5038292;28;20492;-68
2023/03/27 09:58:31;;;;;;;0.77;0.35;;;9.00;79.30;;;;;;5043955;28;20069;-70
2023/03/27 10:01:27;;;;;;;1.17;0.40;;;9.20;79.20;;;;;;5033538;28;20053;-69
2023/03/27 10:03:58;;;;;;;2.22;0.40;;;9.40;76.60;;;;;;5031593;28;20120;-71
2023/03/27 10:06:25;;;;;;;1.15;0.22;;;9.50;79.80;;;;;;5036662;28;20047;-70
2023/03/27 10:08:51;;;;;;;1.52;0.32;;;9.70;81.80;;;;;;5046832;28;20040;-68
2023/03/27 10:11:22;;;;;;;1.90;0.57;;;9.60;81.60;;;;;;5038141;28;20065;-70
2023/03/27 10:13:50;;;;;;;0.82;0.45;;;9.70;79.00;;;;;;5055832;28;20091;-71
2023/03/27 10:16:18;;;;;;;0.77;0.32;;;9.70;72.70;;;;;;5032531;28;20118;-68
2023/03/27 10:18:51;;;;;;;10.73;1.42;;;9.60;69.50;;;;;;5032055;28;20123;-68
2023/03/27 10:21:25;;;;;;;2.50;0.40;;;9.70;72.70;;;;;;5034178;28;20469;-69
2023/03/27 10:23:59;;;;;;;2.25;0.40;;;9.70;69.70;;;;;;5047001;28;20045;-69
2023/03/27 10:26:29;;;;;;;5.90;0.70;;;9.80;70.70;;;;;;5046871;28;20048;-69
2023/03/27 10:29:00;;;;;;;1.88;0.25;;;10.00;72.50;;;;;;5027440;28;20033;-69
2023/03/27 10:31:31;;;;;;;1.67;0.32;;;10.00;69.40;;;;;;5034296;28;20076;-69
2023/03/27 10:34:00;;;;;;;2.50;0.75;;;10.00;66.80;;;;;;5057633;28;20128;-69
2023/03/27 10:36:30;;;;;;;2.33;0.30;;;10.10;64.30;;;;;;5034024;28;20049;-70
2023/03/27 10:39:01;;;;;;;1.10;0.30;;;10.20;65.40;;;;;;5049411;28;20036;-72
2023/03/27 10:41:27;;;;;;;1.17;0.22;;;10.30;65.60;;;;;;5046269;28;20167;-68
2023/03/27 10:43:55;;;;;;;2.00;0.30;;;10.20;64.50;;;;;;5035758;28;20060;-69
2023/03/27 10:46:24;;;;;;;0.60;0.28;;;9.90;67.50;;;;;;5031674;28;20037;-68
2023/03/27 10:49:04;;;;;;;0.43;0.30;;;9.50;69.50;;;;;;5032336;28;20048;-70
2023/03/27 10:51:45;;;;;;;3.35;0.50;;;9.30;69.20;;;;;;5044070;28;20037;-67
2023/03/27 10:54:10;;;;;;;;;;;9.20;65.40;;;;;;5044230;28;20377;-73
2023/03/27 10:56:54;;;;;;;1.25;0.30;;;9.20;62.20;;;;;;5052277;28;19967;-70
2023/03/27 10:59:28;;;;;;;0.93;0.30;;;9.40;67.50;;;;;;5027556;28;20103;-70
2023/03/27 11:01:58;;;;;;;1.15;0.20;;;9.50;68.30;;;;;;5036570;28;20053;-68
2023/03/27 11:05:00;;;;;;;0.50;0.20;;;9.40;65.80;;;;;;5044809;28;20389;-68
2023/03/27 11:07:36;;;;;;;0.82;0.10;;;9.50;61.80;;;;;;5025404;28;20045;-70
2023/03/27 11:10:17;;;;;;;2.50;0.20;;;9.60;62.80;;;;;;5029247;28;20044;-70
2023/03/27 11:12:55;;;;;;;2.15;0.30;;;9.70;65.10;;;;;;5047696;28;20444;-70
2023/03/27 11:15:25;;;;;;;2.00;0.28;;;10.00;64.70;;;;;;5026973;28;22699;-69
2023/03/27 11:18:03;;;;;;;1.15;0.28;;;10.20;63.80;;;;;;5017665;28;20481;-71
2023/03/27 11:20:35;;;;;;;1.17;0.32;;;10.20;59.90;;;;;;5050854;28;20163;-69
2023/03/27 11:23:37;;;;;;;0.80;0.30;;;10.10;58.50;;;;;;5050265;28;20418;-73
2023/03/27 11:26:05;;;;;;;1.33;0.35;;;10.30;56.30;;;;;;5040191;28;20053;-70
2023/03/27 11:29:04;;;;;;;1.10;0.20;;;10.30;58.90;;;;;;5054038;28;20538;-70
2023/03/27 11:31:38;;;;;;;1.67;0.22;;;10.20;60.10;;;;;;5036824;28;20061;-68
2023/03/27 11:34:11;;;;;;;1.92;0.35;;;10.50;59.30;;;;;;5037490;28;20036;-70
2023/03/27 11:36:53;;;;;;;0.65;0.30;;;10.70;60.60;;;;;;5047132;28;20037;-69
2023/03/27 11:39:19;;;;;;;1.25;0.28;;;10.90;58.40;;;;;;5064814;28;20131;-70
2023/03/27 11:41:50;;;;;;;0.43;0.15;;;10.90;61.10;;;;;;5045803;28;20084;-69
2023/03/27 11:44:16;;;;;;;4.20;0.30;;;10.70;58.10;;;;;;5037549;28;20052;-69
2023/03/27 11:46:44;;;;;;;2.65;0.50;;;10.50;57.00;;;;;;5034160;28;20034;-70
2023/03/27 11:49:35;;;;;;;2.03;0.50;;;10.50;57.50;;;;;;5029642;28;20045;-70
2023/03/27 11:52:47;;;;;;;1.25;0.50;;;10.60;58.90;;;;;;5054874;28;20040;-70
2023/03/27 11:55:41;;;;;;;5.95;0.65;;;10.60;56.70;;;;;;5022178;28;20058;-69
2023/03/27 11:58:28;;;;;;;1.23;0.25;;;10.90;56.40;;;;;;5040650;28;20103;-72
2023/03/27 12:01:11;;;;;;;1.60;0.28;;;10.30;58.30;;;;;;5045795;28;20088;-72
2023/03/27 12:04:22;;;;;;;3.40;0.40;;;9.40;63.80;;;;;;5052649;28;20063;-68
2023/03/27 12:06:49;;;;;;;4.13;0.50;;;8.80;71.10;;;;;;5037628;28;20048;-69
2023/03/27 12:09:40;;;;;;;2.35;0.50;;;8.50;78.30;;;;;;5049594;28;20049;-69
2023/03/27 12:12:38;;;;;;;1.00;0.40;;;8.30;82.60;;;;;;5047842;28;20051;-69
2023/03/27 12:15:21;;;;;;;1.63;0.40;;;8.10;87.30;;;;;;5003954;28;20095;-70
2023/03/27 12:17:47;;;;;;;1.70;0.52;;;8.10;90.00;;;;;;5053743;28;20045;-69
2023/03/27 12:21:07;;;;;;;4.18;0.50;;;8.30;92.10;;;;;;5051278;28;20055;-69
2023/03/27 12:24:02;;;;;;;2.60;0.40;;;8.50;91.70;;;;;;5023643;28;20080;-69
2023/03/27 12:26:45;;;;;;;1.80;0.35;;;8.60;90.40;;;;;;5033518;28;20116;-69
2023/03/27 12:29:46;;;;;;;1.92;0.63;;;8.80;90.30;;;;;;5048685;28;20037;-69
2023/03/27 12:32:43;;;;;;;1.17;0.22;;;9.00;89.20;;;;;;5033085;28;20044;-69
2023/03/27 12:35:10;;;;;;;4.55;1.00;;;9.30;86.70;;;;;;5050511;28;20043;-67
2023/03/27 12:37:55;;;;;;;0.93;0.40;;;9.60;80.60;;;;;;5074223;28;20082;-69
2023/03/27 12:40:30;;;;;;;0.75;0.22;;;9.60;76.10;;;;;;5057203;28;20036;-69
2023/03/27 12:43:25;;;;;;;1.17;0.32;;;9.60;72.40;;;;;;5073939;28;20041;-70
2023/03/27 12:46:06;;;;;;;0.77;0.32;;;9.60;67.30;;;;;;5030285;28;20038;-69
2023/03/27 12:48:31;;;;;;;2.85;0.40;;;9.90;62.90;;;;;;5033503;28;20460;-69
2023/03/27 12:50:57;;;;;;;1.85;0.35;;;10.00;64.10;;;;;;5046529;28;20102;-70
2023/03/27 12:53:26;;;;;;;1.35;0.30;;;10.40;63.70;;;;;;5035871;28;20040;-70
2023/03/27 12:56:15;;;;;;;2.40;0.50;;;10.70;61.00;;;;;;5044038;28;20048;-71
2023/03/27 12:58:41;;;;;;;1.77;0.35;;;11.10;56.40;;;;;;5030587;28;20041;-69
2023/03/27 13:01:09;;;;;;;2.60;0.50;;;11.50;59.80;;;;;;5037432;28;20055;-67
2023/03/27 13:03:59;;;;;;;0.80;0.35;;;11.90;56.20;;;;;;5070662;28;20047;-70
2023/03/27 13:06:30;;;;;;;1.23;0.50;;;11.60;49.80;;;;;;5063655;28;20041;-70
2023/03/27 13:09:07;;;;;;;0.55;0.30;;;12.20;51.70;;;;;;5052646;28;20047;-68
2023/03/27 13:12:03;;;;;;;1.05;0.25;;;12.10;51.00;;;;;;5051997;28;20048;-67
2023/03/27 13:14:51;;;;;;;2.35;0.40;;;11.40;47.20;;;;;;5048632;28;20044;-69
2023/03/27 13:17:29;;;;;;;1.02;0.25;;;10.80;51.50;;;;;;5039442;28;20045;-70
2023/03/27 13:20:08;;;;;;;1.27;0.30;;;10.10;57.20;;;;;;5036450;28;20047;-67
2023/03/27 13:22:57;;;;;;;0.47;0.30;;;9.70;61.50;;;;;;5043822;28;20044;-68